Time;durP1;ratioP1;P1;durP2;ratioP2;P2;SDS_P1;SDS_P2;PMS_P1;PMS_P2;Temp;Humidity;BMP_temperature;BMP_pressure;BME280_temperature;BME280_humidity;BME280_pressure;Samples;Min_cycle;Max_cycle;Signal;HPM_P1;HPM_P2
2021/04/01 00:00:35;;;;;;;31.57;26.37;;;8.20;99.90;;;6.40;100.00;100558.13;4967115;28;100320;-61
2021/04/01 00:03:02;;;;;;;34.23;27.80;;;8.20;99.90;;;6.35;100.00;100549.69;4967744;28;100055;-61
2021/04/01 00:05:29;;;;;;;30.03;25.80;;;8.20;99.90;;;6.43;100.00;100549.03;4966317;28;101165;-62
2021/04/01 00:07:56;;;;;;;29.93;25.33;;;8.10;99.90;;;6.18;100.00;100539.59;4966036;28;100744;-61
2021/04/01 00:10:27;;;;;;;29.53;23.37;;;8.20;99.90;;;6.13;100.00;100534.63;4967574;28;100121;-62
2021/04/01 00:12:55;;;;;;;29.23;24.50;;;8.10;99.90;;;6.07;100.00;100531.59;4967346;28;100214;-61
2021/04/01 00:15:22;;;;;;;32.17;25.70;;;8.10;99.90;;;6.12;100.00;100538.25;4966859;28;101049;-62
2021/04/01 00:17:49;;;;;;;29.47;25.53;;;8.00;99.90;;;6.07;100.00;100528.94;4970025;28;101043;-63
2021/04/01 00:20:17;;;;;;;24.87;21.00;;;8.00;99.90;;;6.04;100.00;100527.41;4987033;28;100146;-61
2021/04/01 00:22:44;;;;;;;23.87;19.37;;;8.00;99.90;;;5.81;100.00;100531.00;4987127;28;100321;-61
2021/04/01 00:25:14;;;;;;;21.27;17.90;;;8.00;99.90;;;5.83;100.00;100533.53;4986189;28;101493;-62
2021/04/01 00:27:41;;;;;;;21.47;18.37;;;7.90;99.90;;;5.85;100.00;100534.28;4986248;28;100572;-61
2021/04/01 00:30:11;;;;;;;23.90;19.87;;;7.90;99.90;;;5.82;100.00;100523.88;4966677;28;100177;-63
2021/04/01 00:32:37;;;;;;;21.57;18.60;;;7.80;99.90;;;5.79;100.00;100527.66;4965994;28;100264;-60
2021/04/01 00:35:06;;;;;;;21.63;17.87;;;7.80;99.90;;;5.84;100.00;100512.19;4965909;28;102682;-61
2021/04/01 00:37:33;;;;;;;21.07;18.63;;;7.70;99.90;;;5.73;100.00;100509.53;4965526;28;101275;-60
2021/04/01 00:40:04;;;;;;;21.63;17.70;;;7.70;99.90;;;5.58;100.00;100511.59;4965954;28;100067;-60
2021/04/01 00:42:31;;;;;;;24.50;18.20;;;7.70;99.90;;;5.62;100.00;100506.88;4965862;28;100064;-61
2021/04/01 00:45:01;;;;;;;21.70;17.90;;;7.70;99.90;;;5.87;100.00;100503.13;4965870;28;101006;-61
2021/04/01 00:47:35;;;;;;;22.60;17.80;;;7.60;99.90;;;5.95;100.00;100501.56;4986006;28;101195;-60
2021/04/01 00:50:03;;;;;;;20.90;14.73;;;7.60;99.90;;;5.63;100.00;100500.63;4986555;28;100182;-60
2021/04/01 00:52:30;;;;;;;19.10;14.13;;;7.60;99.90;;;5.56;100.00;100502.06;4985978;28;100171;-60
2021/04/01 00:54:56;;;;;;;17.97;14.77;;;7.60;99.90;;;5.28;100.00;100501.59;4985414;28;101084;-62
2021/04/01 00:57:24;;;;;;;16.10;14.40;;;7.50;99.90;;;5.26;100.00;100492.88;4967196;28;103169;-61
2021/04/01 00:59:51;;;;;;;16.00;14.17;;;7.40;99.90;;;5.27;100.00;100488.44;4986338;28;100479;-60
2021/04/01 01:02:17;;;;;;;17.80;14.27;;;7.40;99.90;;;5.35;100.00;100484.19;4986489;28;100088;-62
2021/04/01 01:04:45;;;;;;;15.83;14.13;;;7.30;99.90;;;5.21;100.00;100489.72;4985843;28;101041;-61
2021/04/01 01:07:12;;;;;;;16.93;13.37;;;7.30;99.90;;;5.14;100.00;100491.19;4985015;28;100556;-60
2021/04/01 01:09:41;;;;;;;18.07;13.87;;;7.20;99.90;;;5.20;100.00;100485.38;4985205;28;100143;-61
2021/04/01 01:12:09;;;;;;;17.00;14.17;;;7.20;99.90;;;5.29;100.00;100487.34;4986170;28;100246;-61
2021/04/01 01:14:35;;;;;;;15.20;13.60;;;7.10;99.90;;;5.24;100.00;100484.19;4966389;28;103141;-61
2021/04/01 01:17:02;;;;;;;17.10;13.33;;;7.10;99.90;;;5.39;100.00;100482.16;4985007;28;100535;-61
2021/04/01 01:19:37;;;;;;;18.77;13.03;;;7.10;99.90;;;5.13;100.00;100475.38;4971315;28;100340;-62
2021/04/01 01:22:05;;;;;;;16.47;13.03;;;7.10;99.90;;;5.05;100.00;100476.00;4964846;28;100272;-62
2021/04/01 01:24:33;;;;;;;16.20;13.23;;;7.10;99.90;;;5.03;100.00;100478.75;4964905;28;101420;-60
2021/04/01 01:27:01;;;;;;;16.77;12.10;;;7.00;99.90;;;5.07;100.00;100474.88;4964184;28;100700;-59
2021/04/01 01:29:28;;;;;;;15.10;12.23;;;7.00;99.90;;;5.02;100.00;100476.22;4966170;28;100157;-61
2021/04/01 01:31:54;;;;;;;17.50;12.70;;;6.90;99.90;;;4.91;100.00;100465.59;4964863;28;100149;-60
2021/04/01 01:34:21;;;;;;;13.83;11.73;;;6.90;99.90;;;5.08;100.00;100465.13;4965136;28;101016;-60
2021/04/01 01:36:48;;;;;;;16.43;12.53;;;6.90;99.90;;;4.92;100.00;100462.84;4965214;28;101253;-60
2021/04/01 01:39:14;;;;;;;15.17;11.80;;;6.80;99.90;;;5.01;100.00;100456.81;4965015;28;100738;-61
2021/04/01 01:41:42;;;;;;;15.03;12.33;;;6.80;99.90;;;4.96;100.00;100464.25;4981744;28;100212;-61
2021/04/01 01:44:09;;;;;;;19.10;13.00;;;6.80;99.90;;;4.84;100.00;100467.00;4965232;28;104040;-60
2021/04/01 01:46:35;;;;;;;13.97;12.10;;;6.80;99.90;;;4.90;100.00;100450.66;4984621;28;101312;-61
2021/04/01 01:49:02;;;;;;;16.20;11.97;;;6.70;99.90;;;4.85;100.00;100456.28;4984957;28;100044;-60
2021/04/01 01:51:30;;;;;;;15.00;11.63;;;6.70;99.90;;;4.68;100.00;100457.59;4983050;28;100816;-62
2021/04/01 01:53:57;;;;;;;13.00;10.97;;;6.70;99.90;;;4.70;100.00;100453.00;4984389;28;100969;-60
2021/04/01 01:56:25;;;;;;;14.10;10.90;;;6.70;99.90;;;4.67;100.00;100461.22;4983934;28;101607;-61
2021/04/01 01:58:54;;;;;;;14.37;10.40;;;6.70;99.90;;;4.76;100.00;100453.50;4984975;28;100032;-61
2021/04/01 02:01:23;;;;;;;14.80;11.40;;;6.60;99.90;;;4.76;100.00;100451.69;4985926;28;100485;-61
2021/04/01 02:03:50;;;;;;;14.80;11.53;;;6.60;99.90;;;4.65;100.00;100455.16;4984314;28;101381;-62
2021/04/01 02:06:19;;;;;;;16.10;12.13;;;6.60;99.90;;;4.65;100.00;100449.88;4984675;28;101124;-62
2021/04/01 02:08:46;;;;;;;17.97;12.73;;;6.60;99.90;;;4.61;100.00;100448.41;4965668;28;100199;-60
2021/04/01 02:11:14;;;;;;;14.10;11.37;;;6.60;99.90;;;4.38;100.00;100446.66;4985316;28;100352;-61
2021/04/01 02:13:40;;;;;;;15.93;12.10;;;6.60;99.90;;;4.31;100.00;100442.78;4985160;28;101663;-62
2021/04/01 02:16:08;;;;;;;17.30;12.17;;;6.50;99.90;;;4.23;100.00;100445.13;4984286;28;101378;-61
2021/04/01 02:18:36;;;;;;;16.07;12.53;;;6.50;99.90;;;4.36;100.00;100443.25;4988206;28;100183;-60
2021/04/01 02:21:03;;;;;;;18.93;12.60;;;6.40;99.90;;;4.42;100.00;100437.53;4988677;28;100295;-62
2021/04/01 02:23:31;;;;;;;15.47;12.63;;;6.40;99.90;;;4.37;100.00;100439.66;4983768;28;100896;-60
2021/04/01 02:26:00;;;;;;;13.23;11.30;;;6.30;99.90;;;4.79;100.00;100437.38;4983914;28;101190;-62
2021/04/01 02:28:29;;;;;;;12.67;11.27;;;6.30;99.90;;;4.70;100.00;100438.91;4983910;28;100238;-61
2021/04/01 02:30:59;;;;;;;12.97;10.87;;;6.30;99.90;;;4.32;100.00;100436.53;4984196;28;100088;-59
2021/04/01 02:33:28;;;;;;;14.50;11.27;;;6.30;99.90;;;4.31;100.00;100435.69;4976366;28;100951;-62
2021/04/01 02:35:55;;;;;;;14.83;11.50;;;6.30;99.90;;;4.14;100.00;100433.44;4945639;28;101456;-62
2021/04/01 02:38:23;;;;;;;13.43;11.33;;;6.20;99.90;;;4.12;100.00;100432.69;4980936;28;100161;-60
2021/04/01 02:40:50;;;;;;;12.30;11.00;;;6.20;99.90;;;4.17;100.00;100435.00;4983725;28;100260;-62
2021/04/01 02:43:21;;;;;;;17.00;12.60;;;6.10;99.90;;;4.07;100.00;100431.34;4983868;28;101627;-62
2021/04/01 02:45:47;;;;;;;16.67;11.83;;;6.10;99.90;;;4.05;100.00;100423.53;4983808;28;100566;-62
2021/04/01 02:48:14;;;;;;;15.93;11.90;;;6.10;99.90;;;4.14;100.00;100424.63;4984250;28;100018;-61
2021/04/01 02:50:41;;;;;;;15.23;11.00;;;6.00;99.90;;;4.26;100.00;100421.91;4984614;28;100175;-61
2021/04/01 02:53:09;;;;;;;11.47;10.20;;;6.00;99.90;;;4.59;100.00;100418.53;4983595;28;100993;-62
2021/04/01 02:55:36;;;;;;;13.43;11.20;;;6.00;99.90;;;4.38;100.00;100422.81;4984032;28;100726;-61
2021/04/01 02:58:04;;;;;;;13.37;10.23;;;6.00;99.90;;;4.61;100.00;100407.81;4983769;28;99912;-61
2021/04/01 03:00:33;;;;;;;14.13;11.13;;;6.00;99.90;;;4.58;100.00;100414.19;4982439;28;100657;-61
2021/04/01 03:03:02;;;;;;;15.83;11.00;;;6.00;99.90;;;4.55;100.00;100411.78;4982167;28;101341;-62
2021/04/01 03:05:29;;;;;;;16.47;11.00;;;6.00;99.90;;;4.25;100.00;100409.63;4963705;28;100427;-62
2021/04/01 03:07:56;;;;;;;12.20;10.67;;;6.00;99.90;;;4.26;100.00;100408.69;4963407;28;100214;-61
2021/04/01 03:10:23;;;;;;;13.10;11.23;;;6.00;99.90;;;4.37;100.00;100412.31;4964476;28;100055;-61
2021/04/01 03:12:50;;;;;;;11.73;9.83;;;6.00;99.90;;;4.43;100.00;100410.06;4963314;28;100910;-61
2021/04/01 03:15:17;;;;;;;14.63;11.70;;;5.90;99.90;;;4.32;100.00;100415.34;4964000;28;100785;-61
2021/04/01 03:17:44;;;;;;;18.30;11.47;;;5.90;99.90;;;4.36;100.00;100413.28;4964064;28;100092;-60
2021/04/01 03:20:12;;;;;;;15.77;11.33;;;6.00;99.90;;;4.31;100.00;100421.59;4964256;28;100150;-61
2021/04/01 03:22:39;;;;;;;13.67;11.63;;;6.00;99.90;;;4.27;100.00;100420.97;4963359;28;101146;-60
2021/04/01 03:25:10;;;;;;;15.27;12.03;;;6.00;99.90;;;4.22;100.00;100414.31;4964156;28;100733;-61
2021/04/01 03:30:25;;;;;;;14.53;11.17;;;6.00;99.90;;;4.11;100.00;100411.63;4963970;28;100149;-62
2021/04/01 03:32:52;;;;;;;12.53;11.23;;;6.00;99.90;;;4.04;100.00;100413.03;4978303;27;101783;-62
2021/04/01 03:35:23;;;;;;;12.60;10.30;;;6.00;99.90;;;4.06;100.00;100406.69;4968014;28;101340;-61
2021/04/01 03:37:52;;;;;;;13.07;10.37;;;6.00;99.90;;;4.09;100.00;100411.72;4987187;28;100309;-62
2021/04/01 03:40:20;;;;;;;13.77;10.90;;;6.00;99.90;;;4.19;100.00;100401.31;4986979;28;100051;-60
2021/04/01 03:42:47;;;;;;;13.50;10.30;;;6.00;99.90;;;4.12;100.00;100406.22;4986423;28;100943;-61
2021/04/01 03:45:15;;;;;;;11.57;9.83;;;6.00;99.90;;;4.19;100.00;100411.91;4986874;28;101187;-61
2021/04/01 03:48:17;;;;;;;12.10;10.80;;;6.00;99.90;;;4.04;100.00;100405.09;4986027;28;100083;-62
2021/04/01 03:51:29;;;;;;;13.80;10.27;;;6.10;99.90;;;4.07;100.00;100412.81;4986573;28;100125;-62
2021/04/01 03:54:40;;;;;;;16.27;10.93;;;6.10;99.90;;;4.10;100.00;100407.28;4986494;28;100671;-61
2021/04/01 03:57:58;;;;;;;12.80;10.27;;;6.10;99.90;;;4.11;100.00;100412.47;4986244;28;100241;-61
2021/04/01 04:04:34;;;;;;;14.67;10.17;;;6.00;99.90;;;4.09;100.00;100414.38;4976220;28;100162;-63
2021/04/01 04:14:36;;;;;;;13.77;10.97;;;6.00;99.90;;;3.94;100.00;100399.66;4986131;28;100467;-60
2021/04/01 04:17:48;;;;;;;15.00;10.90;;;5.90;99.90;;;4.08;100.00;100395.97;4987100;28;100423;-60
2021/04/01 04:21:00;;;;;;;16.70;12.87;;;5.90;99.90;;;4.16;100.00;100401.53;4967133;28;102850;-60
2021/04/01 04:24:12;;;;;;;15.13;12.80;;;5.90;99.90;;;4.05;100.00;100393.56;4986902;28;100720;-61
2021/04/01 04:30:53;;;;;;;15.60;11.83;;;5.90;99.90;;;3.89;100.00;100388.53;4967465;28;100084;-60
2021/04/01 04:34:17;;;;;;;18.73;10.70;;;5.90;99.90;;;3.68;100.00;100387.47;4965574;28;100783;-60
2021/04/01 04:37:28;;;;;;;13.70;11.30;;;5.80;99.90;;;3.85;100.00;100384.41;4965496;28;100487;-60
2021/04/01 04:41:03;;;;;;;15.23;11.10;;;5.70;99.90;;;4.02;100.00;100388.47;4965778;28;100256;-60
2021/04/01 04:44:20;;;;;;;17.97;11.87;;;5.70;99.90;;;3.93;100.00;100382.06;4883939;28;100669;-60
2021/04/01 04:47:32;;;;;;;13.37;11.60;;;5.70;99.90;;;4.02;100.00;100383.19;4882702;28;101366;-62
2021/04/01 04:50:44;;;;;;;13.90;10.83;;;5.70;99.90;;;4.16;100.00;100386.50;4883941;28;100567;-61
2021/04/01 04:53:55;;;;;;;16.00;11.27;;;5.70;99.90;;;4.30;100.00;100378.34;4883634;28;100421;-61
2021/04/01 04:57:21;;;;;;;12.40;10.37;;;5.70;99.90;;;4.35;100.00;100385.94;4971108;28;100308;-60
2021/04/01 05:07:48;;;;;;;13.03;10.33;;;6.00;99.90;;;4.23;100.00;100378.91;4985214;28;100487;-59
2021/04/01 05:14:50;;;;;;;15.93;11.97;;;6.00;99.90;;;4.40;100.00;100380.31;4982267;28;102356;-60
2021/04/01 05:18:13;;;;;;;20.53;11.83;;;6.10;99.90;;;4.50;100.00;100375.97;4985046;28;101163;-60
2021/04/01 05:21:31;;;;;;;13.60;10.63;;;6.20;99.90;;;4.70;100.00;100372.63;4985265;28;100134;-62
2021/04/01 05:24:43;;;;;;;15.47;10.10;;;6.30;99.90;;;4.87;100.00;100372.19;4985528;28;100353;-60
2021/04/01 05:27:58;;;;;;;18.27;11.43;;;6.40;99.90;;;5.02;100.00;100378.94;4964277;28;101043;-60
2021/04/01 05:31:11;;;;;;;16.70;10.53;;;6.50;99.90;;;4.94;100.00;100370.75;4964738;28;100543;-61
2021/04/01 05:34:23;;;;;;;15.30;12.13;;;6.60;99.90;;;4.89;100.00;100364.97;4965347;28;100097;-60
2021/04/01 05:37:37;;;;;;;13.63;10.10;;;6.70;99.90;;;5.04;100.00;100371.72;4964566;28;100186;-61
2021/04/01 05:40:49;;;;;;;13.70;11.10;;;6.80;99.90;;;5.09;100.00;100373.97;4964199;28;101032;-61
2021/04/01 05:44:06;;;;;;;15.47;10.53;;;6.90;99.90;;;5.09;100.00;100368.69;4966506;28;100423;-61
2021/04/01 05:47:20;;;;;;;15.03;11.17;;;7.00;99.90;;;5.22;100.00;100373.84;4964837;28;100277;-61
2021/04/01 05:50:42;;;;;;;18.27;11.07;;;7.10;99.90;;;5.16;100.00;100374.34;4965019;28;100127;-60
2021/04/01 06:04:25;;;;;;;19.17;13.40;;;7.40;99.90;;;5.56;100.00;100386.13;4976639;28;100338;-61
2021/04/01 06:07:41;;;;;;;19.23;16.03;;;7.40;99.90;;;5.89;100.00;100379.91;4980108;28;101482;-61
2021/04/01 06:10:54;;;;;;;21.83;16.70;;;7.50;99.90;;;5.94;100.00;100380.38;4975953;28;100713;-61
2021/04/01 06:17:36;;;;;;;19.77;15.37;;;7.70;99.90;;;6.02;100.00;100385.91;4978319;28;100393;-61
2021/04/01 06:20:52;;;;;;;17.07;13.30;;;7.90;99.90;;;6.24;100.00;100382.31;4977599;28;100588;-61
2021/04/01 06:31:50;;;;;;;19.77;12.93;;;8.30;99.90;;;6.72;100.00;100387.09;4975026;28;100469;-61
2021/04/01 06:35:23;;;;;;;29.17;13.07;;;8.30;99.90;;;6.90;100.00;100388.19;4979411;28;101459;-60
2021/04/01 06:38:43;;;;;;;20.17;12.43;;;8.50;99.90;;;7.17;100.00;100390.28;4980953;28;100451;-59
2021/04/01 06:41:55;;;;;;;15.83;11.63;;;8.60;99.90;;;7.32;100.00;100388.06;4973144;28;100356;-61
2021/04/01 06:45:17;;;;;;;12.67;10.60;;;8.80;99.90;;;7.47;100.00;100392.06;4980842;28;100219;-60
2021/04/01 06:48:31;;;;;;;14.13;10.23;;;9.00;99.90;;;7.66;100.00;100394.78;4971869;28;101083;-61
2021/04/01 06:51:55;;;;;;;20.90;11.30;;;9.20;99.90;;;8.02;100.00;100395.13;4979327;28;100982;-62
2021/04/01 06:55:16;;;;;;;16.03;11.70;;;9.40;99.90;;;8.05;100.00;100394.81;4967042;28;101125;-61
2021/04/01 06:58:48;;;;;;;19.70;11.97;;;9.60;99.90;;;8.04;100.00;100390.47;4976364;28;100506;-60
2021/04/01 07:02:11;;;;;;;13.60;10.90;;;9.80;99.90;;;8.31;100.00;100390.63;4968770;28;101618;-59
2021/04/01 07:05:35;;;;;;;13.63;10.90;;;9.90;99.90;;;8.29;100.00;100395.25;4974233;28;101327;-60
2021/04/01 07:09:14;;;;;;;14.97;11.10;;;10.10;99.90;;;8.45;100.00;100394.72;4983445;27;100024;-61
2021/04/01 07:12:47;;;;;;;14.33;11.17;;;10.30;99.90;;;8.56;100.00;100392.72;4976551;28;100338;-60
2021/04/01 07:16:03;;;;;;;14.73;10.83;;;10.40;99.90;;;8.64;100.00;100389.38;4981548;28;100587;-59
2021/04/01 07:46:43;;;;;;;15.27;11.13;;;12.30;99.90;;;11.40;100.00;100371.53;4977096;28;101041;-61
2021/04/01 07:50:00;;;;;;;16.90;11.00;;;12.70;99.90;;;11.64;100.00;100372.59;4983496;28;100029;-60
2021/04/01 07:53:18;;;;;;;16.10;10.47;;;13.00;99.90;;;12.02;100.00;100369.38;4978825;28;100221;-61
2021/04/01 07:56:37;;;;;;;14.23;10.93;;;13.30;99.90;;;12.13;100.00;100385.16;4977090;28;101224;-60
2021/04/01 08:07:32;;;;;;;14.27;10.80;;;14.00;95.60;;;12.30;100.00;100371.75;4846141;28;100382;-59
2021/04/01 08:10:48;;;;;;;15.50;11.47;;;14.20;94.70;;;12.42;100.00;100371.25;4926740;28;101372;-60
2021/04/01 08:14:07;;;;;;;19.10;11.37;;;14.30;94.50;;;12.54;100.00;100383.34;4977009;28;101496;-61
2021/04/01 08:17:46;;;;;;;17.47;10.70;;;14.40;93.50;;;12.91;100.00;100371.22;4979287;28;100326;-60
2021/04/01 08:21:03;;;;;;;16.63;11.63;;;14.60;93.30;;;13.15;100.00;100379.25;4978313;28;100434;-61
2021/04/01 08:24:20;;;;;;;17.27;11.38;;;14.90;91.80;;;13.39;100.00;100367.56;4969100;28;100557;-60
2021/04/01 08:27:51;;;;;;;15.90;11.40;;;15.10;90.70;;;13.34;100.00;100372.63;4981698;28;100499;-61
2021/04/01 08:34:41;;;;;;;18.50;12.20;;;15.60;86.40;;;13.25;100.00;100379.88;4978180;28;100291;-62
2021/04/01 08:38:10;;;;;;;16.00;11.73;;;15.80;82.00;;;13.47;100.00;100374.78;4982654;28;100237;-62
2021/04/01 08:41:44;;;;;;;19.60;12.43;;;15.90;80.00;;;13.55;100.00;100380.94;4977333;28;100312;-62
2021/04/01 08:45:15;;;;;;;21.48;12.95;;;15.90;79.90;;;13.45;100.00;100383.00;4968898;28;99721;-60
2021/04/01 08:48:35;;;;;;;23.33;12.32;;;16.00;78.80;;;13.94;100.00;100391.66;4979865;28;100224;-60
2021/04/01 08:52:00;;;;;;;19.55;13.52;;;16.10;78.70;;;13.90;100.00;100374.19;4981794;28;100310;-60
2021/04/01 08:55:20;;;;;;;19.35;13.63;;;16.30;77.50;;;14.11;100.00;100375.41;4983157;28;99941;-61
2021/04/01 08:58:43;;;;;;;17.88;13.48;;;16.50;76.70;;;13.77;100.00;100392.75;4971491;28;99908;-60
2021/04/01 09:01:59;;;;;;;21.30;13.90;;;16.60;73.90;;;13.79;100.00;100379.97;4977731;28;100150;-61
2021/04/01 09:05:16;;;;;;;23.08;14.75;;;16.70;72.20;;;13.84;100.00;100374.09;4982756;28;100692;-61
2021/04/01 09:08:29;;;;;;;20.17;14.52;;;16.70;70.40;;;13.85;100.00;100365.81;4979066;28;99737;-60
2021/04/01 09:18:55;;;;;;;18.35;14.00;;;16.50;69.40;;;14.56;100.00;100366.50;4976224;28;100309;-61
2021/04/01 09:22:26;;;;;;;21.88;14.88;;;16.60;70.40;;;14.65;100.00;100363.56;4943736;28;100088;-60
2021/04/01 09:25:44;;;;;;;22.23;14.77;;;16.80;69.70;;;14.92;100.00;100362.13;4979940;28;99551;-59
2021/04/01 09:28:57;;;;;;;19.40;13.60;;;17.00;69.60;;;14.81;100.00;100365.25;4979618;28;99718;-61
2021/04/01 09:32:22;;;;;;;23.15;14.55;;;17.20;68.20;;;14.85;100.00;100368.41;4974422;28;101104;-61
2021/04/01 09:35:36;;;;;;;24.75;14.85;;;17.40;66.20;;;15.15;100.00;100370.13;4960581;28;102602;-59
2021/04/01 09:39:04;;;;;;;20.23;15.20;;;17.50;65.40;;;15.00;100.00;100356.63;4977456;28;100089;-62
2021/04/01 09:42:32;;;;;;;18.10;14.73;;;17.70;65.60;;;15.52;100.00;100355.69;4984139;28;100196;-61
2021/04/01 09:45:55;;;;;;;19.50;15.35;;;17.90;65.90;;;16.03;100.00;100347.56;4978463;28;99898;-62
2021/04/01 09:49:12;;;;;;;23.40;14.98;;;18.20;63.80;;;16.29;100.00;100347.00;4978693;28;99666;-61
2021/04/01 09:52:26;;;;;;;19.67;15.00;;;18.70;62.60;;;16.49;100.00;100348.00;4972304;28;100128;-62
2021/04/01 09:55:46;;;;;;;19.17;14.60;;;19.20;59.80;;;16.30;100.00;100343.28;4984628;28;99772;-62
2021/04/01 09:59:12;;;;;;;20.73;15.10;;;19.70;57.40;;;16.34;100.00;100348.06;4981200;28;100081;-61
2021/04/01 10:02:48;;;;;;;20.75;15.73;;;19.90;56.20;;;16.44;100.00;100353.19;4984949;28;99614;-61
2021/04/01 10:09:35;;;;;;;21.50;15.68;;;20.00;55.70;;;16.71;100.00;100365.03;4941843;28;99574;-62
2021/04/01 10:13:07;;;;;;;22.23;16.60;;;20.00;55.20;;;16.75;100.00;100369.03;4983234;28;99834;-61
2021/04/01 10:16:25;;;;;;;25.23;16.50;;;20.10;54.60;;;16.66;100.00;100378.31;4976246;28;99502;-61
2021/04/01 10:19:38;;;;;;;23.52;17.08;;;20.20;54.50;;;16.48;100.00;100387.69;4962962;28;100085;-61
2021/04/01 10:22:51;;;;;;;24.98;16.95;;;20.20;53.20;;;16.34;100.00;100376.94;4970914;28;100016;-62
2021/04/01 10:26:11;;;;;;;24.70;16.13;;;20.20;52.40;;;16.42;100.00;100369.56;4973624;28;100337;-61
2021/04/01 10:29:28;;;;;;;20.73;16.15;;;20.20;53.30;;;16.35;100.00;100363.25;4970642;28;100392;-62
2021/04/01 10:32:43;;;;;;;27.65;16.98;;;20.00;53.40;;;16.13;100.00;100361.59;4981254;28;99555;-61
2021/04/01 10:35:58;;;;;;;23.10;15.88;;;19.80;54.40;;;16.05;100.00;100370.66;4979912;28;99502;-62
2021/04/01 10:39:16;;;;;;;22.30;17.20;;;19.50;55.20;;;16.17;100.00;100355.63;4986148;28;100512;-62
2021/04/01 10:42:34;;;;;;;26.40;16.77;;;19.40;56.10;;;15.99;100.00;100341.72;4980211;27;100068;-62
2021/04/01 10:45:52;;;;;;;23.23;16.67;;;19.40;56.20;;;16.38;100.00;100337.72;4976189;28;100190;-61
2021/04/01 10:49:12;;;;;;;23.02;16.25;;;19.40;56.50;;;16.26;100.00;100333.88;4982713;28;100143;-62
2021/04/01 10:52:32;;;;;;;24.92;15.73;;;19.60;56.00;;;16.64;100.00;100338.00;4985283;28;100667;-61
2021/04/01 10:55:43;;;;;;;25.02;17.45;;;19.80;55.60;;;16.79;100.00;100327.91;4979411;28;100019;-62
2021/04/01 10:59:05;;;;;;;23.20;17.48;;;19.90;54.90;;;16.64;100.00;100323.66;4978101;28;100551;-62
2021/04/01 11:02:23;;;;;;;26.08;17.58;;;20.00;54.30;;;16.90;100.00;100325.69;4981004;28;99990;-61
2021/04/01 11:05:37;;;;;;;24.40;18.05;;;20.10;53.50;;;17.18;100.00;100321.09;4981345;28;99795;-62
2021/04/01 11:08:55;;;;;;;28.73;18.40;;;20.20;53.50;;;17.33;100.00;100326.34;4980606;28;100031;-60
2021/04/01 11:12:20;;;;;;;22.67;16.92;;;20.30;53.10;;;17.43;100.00;100330.34;4979814;28;99921;-61
2021/04/01 11:15:35;;;;;;;23.08;17.83;;;20.50;53.00;;;17.29;100.00;100317.81;4984752;28;100083;-61
2021/04/01 11:19:01;;;;;;;22.15;16.80;;;20.60;52.70;;;17.57;100.00;100296.06;4987703;28;100677;-61
2021/04/01 11:22:13;;;;;;;21.42;16.75;;;20.70;53.10;;;18.04;100.00;100288.94;4982905;28;99935;-61
2021/04/01 11:25:31;;;;;;;26.20;18.35;;;20.90;52.60;;;17.39;100.00;100283.09;4987287;28;99740;-61
2021/04/01 11:28:57;;;;;;;22.65;16.17;;;21.10;51.80;;;17.79;100.00;100288.69;4993201;28;99638;-62
2021/04/01 11:32:15;;;;;;;25.30;18.45;;;21.20;51.90;;;17.64;100.00;100280.72;4998716;28;100413;-61
2021/04/01 11:35:29;;;;;;;28.10;18.80;;;21.40;51.40;;;18.72;100.00;100284.97;4972837;28;95989;-61
2021/04/01 11:38:48;;;;;;;27.60;20.55;;;21.70;51.00;;;18.36;100.00;100284.56;4992054;28;100004;-60
2021/04/01 11:42:04;;;;;;;27.70;18.90;;;22.20;50.00;;;18.90;100.00;100277.03;4985548;28;99813;-61
2021/04/01 11:45:16;;;;;;;26.73;18.65;;;22.70;49.40;;;18.96;100.00;100297.00;4993605;28;100072;-64
2021/04/01 11:52:19;;;;;;;26.13;19.63;;;23.20;47.50;;;18.97;100.00;100294.09;4990994;28;100074;-61
2021/04/01 11:59:30;;;;;;;27.48;20.70;;;23.40;45.50;;;19.11;100.00;100286.75;4979040;28;99903;-62
2021/04/01 12:02:41;;;;;;;27.33;20.80;;;23.50;45.20;;;19.38;100.00;100279.34;4985167;28;99769;-60
2021/04/01 12:05:54;;;;;;;30.48;22.70;;;23.60;44.90;;;18.71;100.00;100277.03;4985114;28;100075;-62
2021/04/01 12:09:06;;;;;;;28.63;21.95;;;23.80;43.80;;;19.38;100.00;100263.06;4996037;28;95674;-62
2021/04/01 12:12:17;;;;;;;26.15;20.40;;;24.00;43.30;;;19.40;100.00;100271.84;4987529;28;99993;-61
2021/04/01 12:15:35;;;;;;;28.17;19.83;;;24.00;43.30;;;19.30;100.00;100264.13;4989468;28;97968;-62
2021/04/01 12:19:04;;;;;;;25.92;19.92;;;24.00;43.50;;;19.26;100.00;100262.09;4990822;28;92694;-62
2021/04/01 12:22:29;;;;;;;26.63;20.33;;;24.00;43.30;;;19.49;100.00;100256.16;4961842;28;99778;-61
2021/04/01 12:25:43;;;;;;;26.13;20.42;;;24.00;44.00;;;18.93;100.00;100259.47;4996664;28;97026;-61
2021/04/01 12:28:57;;;;;;;26.88;20.05;;;24.10;42.90;;;18.85;100.00;100244.28;5015236;28;87902;-62
2021/04/01 12:32:10;;;;;;;27.02;20.58;;;24.00;42.80;;;19.03;100.00;100238.19;5015109;28;82822;-62
2021/04/01 12:39:14;;;;;;;26.55;20.45;;;23.80;43.10;;;19.14;100.00;100240.22;4987736;28;98694;-60
2021/04/01 12:42:25;;;;;;;30.92;22.90;;;23.60;43.50;;;18.53;100.00;100245.16;5007554;28;99343;-61
2021/04/01 12:45:42;;;;;;;28.67;20.52;;;23.40;43.00;;;18.35;100.00;100237.66;4976826;28;99953;-61
2021/04/01 12:49:03;;;;;;;28.60;20.88;;;23.10;43.60;;;18.40;100.00;100226.22;4987654;28;99668;-62
2021/04/01 12:52:25;;;;;;;28.70;21.23;;;22.70;44.00;;;18.41;100.00;100220.59;4991336;28;100220;-60
2021/04/01 12:55:55;;;;;;;28.80;21.05;;;22.40;44.60;;;18.60;100.00;100208.06;4982043;28;100030;-61
2021/04/01 12:59:07;;;;;;;39.45;24.52;;;22.20;45.40;;;18.35;100.00;100210.59;4972122;28;99772;-61
2021/04/01 13:02:19;;;;;;;29.60;22.48;;;22.10;45.10;;;18.26;100.00;100209.16;4978772;28;99965;-61
2021/04/01 13:05:33;;;;;;;34.63;23.60;;;22.00;45.10;;;18.53;100.00;100209.94;4985728;28;99683;-61
2021/04/01 13:12:17;;;;;;;34.45;26.20;;;21.70;45.30;;;18.18;100.00;100218.28;4998230;28;100331;-62
2021/04/01 13:15:29;;;;;;;31.13;23.60;;;21.50;45.30;;;18.39;100.00;100219.97;4990210;28;100062;-59
2021/04/01 13:18:40;;;;;;;30.23;23.20;;;21.40;45.30;;;18.39;100.00;100211.00;4977237;28;99708;-61
2021/04/01 13:22:05;;;;;;;31.63;22.77;;;21.30;45.40;;;18.41;100.00;100215.19;4985154;28;99547;-64
2021/04/01 13:25:17;;;;;;;28.88;22.08;;;21.40;45.50;;;18.35;100.00;100210.59;4983368;28;100167;-60
2021/04/01 13:28:31;;;;;;;29.35;21.05;;;21.40;45.50;;;18.27;100.00;100211.66;4984965;28;99669;-62
2021/04/01 13:31:45;;;;;;;33.55;23.13;;;21.40;45.80;;;18.14;100.00;100208.13;4984698;28;99319;-60
2021/04/01 13:35:04;;;;;;;28.27;22.40;;;21.40;45.80;;;18.13;100.00;100211.84;4990836;28;100628;-60
2021/04/01 13:38:20;;;;;;;32.70;22.75;;;21.30;46.00;;;18.05;100.00;100218.28;4986344;28;99766;-60
2021/04/01 13:41:56;;;;;;;33.33;22.67;;;21.30;46.00;;;17.98;100.00;100222.88;4984233;28;100030;-60
2021/04/01 13:45:11;;;;;;;29.42;21.60;;;21.20;46.00;;;18.09;100.00;100230.38;4981598;28;100607;-60
2021/04/01 13:48:27;;;;;;;34.55;22.08;;;21.10;46.60;;;18.00;100.00;100247.06;4986767;28;99724;-62
2021/04/01 13:51:38;;;;;;;33.47;22.48;;;21.10;47.60;;;17.68;100.00;100249.50;4975243;28;99534;-61
2021/04/01 13:54:53;;;;;;;27.25;22.27;;;21.00;48.20;;;17.52;100.00;100249.84;5006312;28;98038;-62
2021/04/01 14:16:17;;;;;;;32.70;22.52;;;20.10;52.90;;;17.32;100.00;100254.34;5007847;28;89230;-62